createdAt,value
2022-08-21T00:01:41.255Z,7.10
2022-08-21T00:04:22.514Z,7.13
2022-08-21T00:07:13.006Z,6.03
2022-08-21T00:09:54.400Z,8.13
2022-08-21T00:12:32.067Z,5.53
2022-08-21T00:15:02.157Z,7.63
2022-08-21T00:17:34.424Z,5.87
2022-08-21T00:20:07.809Z,6.47
2022-08-21T00:22:37.982Z,6.27
2022-08-21T00:25:11.528Z,9.43
2022-08-21T00:27:47.875Z,8.03
2022-08-21T00:30:23.593Z,4.83
2022-08-21T00:32:57.273Z,7.67
2022-08-21T00:35:33.245Z,7.57
2022-08-21T00:38:05.760Z,5.90
2022-08-21T00:40:44.317Z,6.17
2022-08-21T00:43:21.509Z,4.70
2022-08-21T00:45:54.267Z,5.97
2022-08-21T00:48:29.862Z,6.93
2022-08-21T00:51:10.467Z,7.43
2022-08-21T00:53:42.163Z,8.13
2022-08-21T00:56:19.223Z,8.07
2022-08-21T00:58:59.568Z,6.87
2022-08-21T01:01:32.139Z,7.77
2022-08-21T01:04:08.919Z,6.03
2022-08-21T01:06:40.256Z,7.43
2022-08-21T01:09:20.830Z,5.77
2022-08-21T01:11:53.568Z,5.07
2022-08-21T01:14:39.042Z,4.47
2022-08-21T01:17:11.932Z,7.33
2022-08-21T01:19:41.809Z,7.17
2022-08-21T01:22:17.455Z,6.23
2022-08-21T01:24:51.424Z,9.27
2022-08-21T01:27:21.670Z,8.20
2022-08-21T01:29:58.150Z,7.37
2022-08-21T01:32:30.456Z,7.53
2022-08-21T01:35:00.121Z,7.47
2022-08-21T01:37:33.939Z,8.50
2022-08-21T01:40:15.277Z,5.27
2022-08-21T01:42:47.837Z,6.90
2022-08-21T01:45:28.284Z,6.30
2022-08-21T01:47:57.682Z,6.63
2022-08-21T01:50:27.110Z,6.53
2022-08-21T01:53:07.325Z,5.07
2022-08-21T01:55:36.819Z,7.00
2022-08-21T01:58:08.392Z,6.63
2022-08-21T02:00:43.855Z,6.40
2022-08-21T02:03:13.170Z,6.07
2022-08-21T02:05:55.356Z,7.37
2022-08-21T02:08:32.986Z,6.87
2022-08-21T02:11:02.632Z,6.93
2022-08-21T02:13:36.473Z,5.50
2022-08-21T02:16:11.659Z,8.23
2022-08-21T02:18:42.982Z,8.20
2022-08-21T02:21:14.280Z,8.57
2022-08-21T02:23:46.817Z,7.77
2022-08-21T02:26:16.827Z,6.60
2022-08-21T02:28:52.727Z,7.10
2022-08-21T02:31:22.814Z,7.63
2022-08-21T02:33:57.531Z,7.50
2022-08-21T02:36:29.410Z,7.03
2022-08-21T02:39:00.398Z,6.33
2022-08-21T02:41:32.661Z,6.43
2022-08-21T02:44:02.591Z,6.73
2022-08-21T02:46:35.908Z,7.57
2022-08-21T02:49:06.746Z,6.27
2022-08-21T02:51:39.266Z,8.07
2022-08-21T02:54:09.997Z,6.23
2022-08-21T02:56:39.597Z,8.03
2022-08-21T02:59:09.401Z,8.03
2022-08-21T03:01:44.501Z,9.10
2022-08-21T03:04:15.326Z,5.73
2022-08-21T03:06:45.766Z,7.60
2022-08-21T03:09:16.496Z,6.07
2022-08-21T03:11:45.900Z,6.67
2022-08-21T03:14:32.935Z,8.27
2022-08-21T03:17:03.205Z,7.73
2022-08-21T03:19:34.624Z,5.87
2022-08-21T03:22:05.477Z,6.87
2022-08-21T03:24:39.070Z,6.57
2022-08-21T03:27:13.873Z,7.33
2022-08-21T03:29:44.001Z,6.67
2022-08-21T03:32:13.758Z,7.17
2022-08-21T03:34:46.303Z,6.20
2022-08-21T03:37:20.725Z,5.57
2022-08-21T03:39:52.981Z,6.03
2022-08-21T03:42:25.285Z,7.60
2022-08-21T03:44:54.687Z,7.30
2022-08-21T03:47:26.620Z,5.17
2022-08-21T03:49:58.417Z,6.60
2022-08-21T03:52:29.017Z,5.40
2022-08-21T03:54:59.854Z,5.73
2022-08-21T03:57:29.149Z,4.90
2022-08-21T03:59:58.669Z,7.50
2022-08-21T04:02:32.330Z,6.93
2022-08-21T04:05:06.323Z,5.60
2022-08-21T04:07:35.764Z,6.67
2022-08-21T04:10:13.077Z,7.67
2022-08-21T04:12:45.150Z,8.37
2022-08-21T04:15:17.127Z,6.90
2022-08-21T04:17:50.452Z,5.57
2022-08-21T04:20:20.651Z,7.13
2022-08-21T04:22:50.065Z,8.93
2022-08-21T04:25:23.424Z,6.57
2022-08-21T04:27:54.982Z,7.80
2022-08-21T04:30:28.047Z,7.93
2022-08-21T04:33:00.418Z,6.07
2022-08-21T04:35:34.512Z,9.33
2022-08-21T04:38:06.286Z,7.47
2022-08-21T04:40:43.471Z,7.53
2022-08-21T04:43:17.910Z,6.57
2022-08-21T04:45:50.441Z,7.67
2022-08-21T04:48:23.808Z,8.23
2022-08-21T04:51:01.005Z,6.77
2022-08-21T04:53:40.965Z,6.07
2022-08-21T04:56:15.666Z,6.93
2022-08-21T04:58:48.770Z,7.37
2022-08-21T05:01:27.491Z,7.67
2022-08-21T05:04:01.146Z,6.93
2022-08-21T05:06:38.458Z,7.57
2022-08-21T05:09:10.745Z,5.33
2022-08-21T05:11:44.749Z,6.20
2022-08-21T05:14:16.036Z,4.67
2022-08-21T05:16:45.670Z,5.67
2022-08-21T05:19:20.116Z,5.43
2022-08-21T05:21:56.595Z,5.17
2022-08-21T05:24:26.758Z,7.27
2022-08-21T05:26:58.040Z,8.43
2022-08-21T05:29:32.741Z,5.57
2022-08-21T05:32:02.487Z,5.80
2022-08-21T05:34:31.886Z,5.27
2022-08-21T05:37:07.768Z,6.97
2022-08-21T05:40:04.547Z,5.53
2022-08-21T05:42:30.817Z,5.27
2022-08-21T05:45:03.590Z,5.80
2022-08-21T05:47:32.866Z,3.90
2022-08-21T05:50:05.874Z,5.23
2022-08-21T05:52:35.308Z,5.23
2022-08-21T05:55:23.715Z,6.17
2022-08-21T05:57:54.593Z,5.10
2022-08-21T06:00:24.607Z,5.40
2022-08-21T06:02:57.166Z,5.73
2022-08-21T06:05:36.827Z,4.27
2022-08-21T06:08:11.294Z,5.20
2022-08-21T06:10:41.540Z,5.13
2022-08-21T06:13:15.367Z,5.83
2022-08-21T06:15:46.896Z,5.30
2022-08-21T06:18:32.436Z,7.03
2022-08-21T06:21:03.204Z,6.43
2022-08-21T06:23:35.325Z,4.87
2022-08-21T06:28:53.195Z,7.70
2022-08-21T06:31:28.232Z,6.50
2022-08-21T06:34:01.299Z,7.13
2022-08-21T06:36:35.593Z,8.77
2022-08-21T06:39:16.334Z,9.67
2022-08-21T06:41:56.921Z,8.50
2022-08-21T06:44:29.805Z,9.93
2022-08-21T06:47:00.769Z,12.93
2022-08-21T06:49:30.294Z,13.83
2022-08-21T06:52:07.977Z,10.73
2022-08-21T06:54:37.616Z,12.57
2022-08-21T06:57:12.776Z,13.93
2022-08-21T06:59:44.946Z,13.63
2022-08-21T07:02:17.345Z,12.23
2022-08-21T07:04:47.030Z,13.87
2022-08-21T07:07:33.788Z,13.77
2022-08-21T07:10:03.734Z,9.30
2022-08-21T07:12:38.488Z,11.93
2022-08-21T07:15:27.602Z,11.93
2022-08-21T07:18:04.513Z,11.90
2022-08-21T07:20:44.754Z,15.30
2022-08-21T07:23:25.087Z,10.27
2022-08-21T07:25:58.293Z,10.35
2022-08-21T07:28:37.305Z,9.48
2022-08-21T07:31:15.151Z,10.63
2022-08-21T07:33:53.867Z,9.82
2022-08-21T07:36:29.024Z,11.38
2022-08-21T07:39:07.310Z,9.75
2022-08-21T07:41:44.393Z,9.02
2022-08-21T07:44:37.332Z,9.18
2022-08-21T07:47:41.787Z,7.35
2022-08-21T07:50:18.267Z,9.32
2022-08-21T07:52:48.718Z,8.07
2022-08-21T07:55:26.320Z,6.45
2022-08-21T07:57:57.970Z,6.93
2022-08-21T08:00:47.598Z,9.18
2022-08-21T08:03:20.538Z,9.63
2022-08-21T08:06:10.573Z,8.27
2022-08-21T08:08:46.043Z,12.68
2022-08-21T08:11:28.712Z,8.70
2022-08-21T08:14:05.620Z,10.05
2022-08-21T08:16:40.379Z,12.45
2022-08-21T08:22:05.328Z,16.27
2022-08-21T08:24:43.641Z,12.07
2022-08-21T08:27:21.796Z,9.48
2022-08-21T08:29:59.946Z,9.75
2022-08-21T08:32:29.954Z,14.57
2022-08-21T08:35:03.928Z,11.95
2022-08-21T08:37:40.754Z,7.65
2022-08-21T08:40:46.427Z,12.60
2022-08-21T08:43:25.068Z,14.00
2022-08-21T08:46:00.586Z,13.18
2022-08-21T08:48:53.399Z,16.70
2022-08-21T08:51:37.756Z,8.30
2022-08-21T08:54:12.575Z,9.18
2022-08-21T08:56:45.284Z,10.27
2022-08-21T09:02:21.471Z,9.13
2022-08-21T09:05:02.247Z,10.23
2022-08-21T09:07:41.495Z,10.40
2022-08-21T09:10:29.374Z,9.23
2022-08-21T09:13:11.369Z,7.72
2022-08-21T09:16:08.860Z,7.63
2022-08-21T09:19:01.785Z,7.70
2022-08-21T09:21:47.980Z,5.57
2022-08-21T09:24:37.675Z,7.28
2022-08-21T09:27:16.902Z,7.38
2022-08-21T09:29:52.370Z,7.35
2022-08-21T09:32:37.724Z,5.93
2022-08-21T09:35:17.309Z,10.90
2022-08-21T09:38:00.719Z,5.80
2022-08-21T09:40:47.286Z,7.35
2022-08-21T09:43:30.480Z,7.95
2022-08-21T09:46:11.523Z,6.70
2022-08-21T09:49:04.191Z,6.03
2022-08-21T09:52:05.291Z,4.93
2022-08-21T09:54:39.138Z,4.55
2022-08-21T09:57:46.708Z,4.93
2022-08-21T10:00:40.542Z,6.30
2022-08-21T10:03:23.459Z,5.50
2022-08-21T10:06:19.828Z,7.38
2022-08-21T10:09:21.339Z,5.30
2022-08-21T10:12:11.526Z,6.05
2022-08-21T10:14:59.322Z,6.65
2022-08-21T10:17:46.142Z,4.50
2022-08-21T10:20:27.280Z,4.40
2022-08-21T10:23:18.179Z,4.57
2022-08-21T10:26:13.546Z,4.63
2022-08-21T10:28:54.412Z,3.53
2022-08-21T10:31:43.370Z,9.13
2022-08-21T10:34:32.572Z,4.10
2022-08-21T10:37:16.029Z,4.25
2022-08-21T10:40:12.453Z,3.47
2022-08-21T10:43:01.983Z,4.10
2022-08-21T10:45:54.066Z,4.78
2022-08-21T10:48:32.736Z,4.75
2022-08-21T10:51:09.611Z,5.97
2022-08-21T10:53:57.216Z,5.88
2022-08-21T10:56:33.203Z,3.85
2022-08-21T10:59:24.465Z,5.40
2022-08-21T11:02:03.353Z,3.35
2022-08-21T11:04:51.153Z,4.10
2022-08-21T11:07:34.111Z,5.53
2022-08-21T11:10:23.010Z,5.13
2022-08-21T11:13:04.416Z,5.22
2022-08-21T11:15:48.486Z,3.10
2022-08-21T11:18:25.328Z,7.70
2022-08-21T11:21:21.108Z,4.75
2022-08-21T11:24:00.111Z,5.30
2022-08-21T11:26:40.437Z,2.83
2022-08-21T11:29:17.680Z,5.18
2022-08-21T11:32:04.220Z,4.80
2022-08-21T11:34:49.808Z,4.03
2022-08-21T11:37:44.284Z,5.75
2022-08-21T11:40:47.171Z,4.00
2022-08-21T11:43:29.050Z,3.83
2022-08-21T11:46:20.050Z,4.32
2022-08-21T11:49:02.896Z,2.67
2022-08-21T11:51:40.460Z,2.80
2022-08-21T11:54:32.911Z,4.53
2022-08-21T11:57:17.684Z,2.92
2022-08-21T11:59:54.388Z,1.80
2022-08-21T12:02:33.541Z,2.40
2022-08-21T12:05:22.710Z,3.40
2022-08-21T12:08:10.997Z,1.52
2022-08-21T12:10:44.679Z,3.85
2022-08-21T12:13:40.648Z,3.65
2022-08-21T12:16:17.684Z,3.22
2022-08-21T12:18:50.746Z,3.90
2022-08-21T12:21:36.444Z,4.15
2022-08-21T12:24:19.156Z,3.63
2022-08-21T12:27:21.431Z,2.60
2022-08-21T12:30:12.316Z,4.50
2022-08-21T12:32:57.720Z,3.38
2022-08-21T12:35:35.353Z,1.92
2022-08-21T12:38:12.200Z,2.75
2022-08-21T12:41:05.489Z,6.05
2022-08-21T12:43:43.790Z,3.15
2022-08-21T12:46:26.723Z,3.42
2022-08-21T12:49:29.257Z,3.05
2022-08-21T12:52:22.885Z,2.95
2022-08-21T12:54:52.502Z,3.15
2022-08-21T12:57:36.352Z,3.78
2022-08-21T13:00:29.395Z,3.05
2022-08-21T13:03:08.502Z,4.18
2022-08-21T13:05:48.826Z,3.13
2022-08-21T14:27:29.742Z,4.78
2022-08-21T14:30:06.838Z,2.00
2022-08-21T14:32:44.707Z,3.28
2022-08-21T14:35:18.903Z,2.38
2022-08-21T14:38:00.942Z,4.03
2022-08-21T14:40:35.269Z,2.95
2022-08-21T14:43:09.832Z,3.95
2022-08-21T14:45:42.942Z,3.53
2022-08-21T14:48:17.120Z,2.85
2022-08-21T14:50:47.488Z,5.60
2022-08-21T14:53:19.915Z,4.40
2022-08-21T14:56:09.110Z,3.80
2022-08-21T14:58:46.402Z,4.40
2022-08-21T15:01:21.870Z,4.88
2022-08-21T15:04:01.194Z,2.88
2022-08-21T15:06:30.838Z,2.45
2022-08-21T15:09:14.031Z,4.38
2022-08-21T15:11:48.185Z,2.58
2022-08-21T15:14:24.486Z,4.43
2022-08-21T15:17:00.149Z,2.97
2022-08-21T15:19:44.902Z,3.80
2022-08-21T15:22:27.540Z,5.03
2022-08-21T15:24:59.994Z,2.75
2022-08-21T15:27:29.530Z,2.80
2022-08-21T15:30:14.652Z,2.45
2022-08-21T15:32:45.511Z,4.88
2022-08-21T15:35:28.618Z,11.70
2022-08-21T15:38:00.864Z,4.63
2022-08-21T15:40:31.381Z,10.65
2022-08-21T15:43:07.709Z,3.13
2022-08-21T15:45:42.660Z,3.30
2022-08-21T15:48:20.935Z,3.47
2022-08-21T15:50:55.385Z,3.03
2022-08-21T15:53:29.341Z,6.63
2022-08-21T15:56:09.157Z,7.32
2022-08-21T15:58:44.559Z,7.35
2022-08-21T16:01:44.243Z,14.45
2022-08-21T16:04:33.206Z,9.48
2022-08-21T16:07:17.923Z,6.15
2022-08-21T16:09:57.889Z,4.05
2022-08-21T16:12:40.867Z,3.60
2022-08-21T16:15:20.585Z,4.95
2022-08-21T16:17:59.699Z,4.82
2022-08-21T16:20:44.997Z,2.50
2022-08-21T16:23:15.657Z,2.40
2022-08-21T16:25:45.657Z,1.95
2022-08-21T16:28:34.521Z,3.00
2022-08-21T16:31:06.940Z,2.80
2022-08-21T16:33:47.818Z,2.63
2022-08-21T16:36:18.082Z,2.17
2022-08-21T16:38:53.958Z,1.73
2022-08-21T16:41:29.599Z,2.38
2022-08-21T16:44:07.998Z,3.15
2022-08-21T16:46:42.206Z,1.50
2022-08-21T16:49:13.117Z,4.03
2022-08-21T16:51:49.175Z,3.70
2022-08-21T16:54:32.255Z,5.68
2022-08-21T16:57:09.758Z,3.45
2022-08-21T16:59:43.298Z,1.88
2022-08-21T17:02:23.736Z,2.53
2022-08-21T17:04:58.083Z,3.75
2022-08-21T17:07:37.149Z,4.10
2022-08-21T17:10:30.462Z,3.65
2022-08-21T17:13:10.676Z,3.90
2022-08-21T17:15:41.149Z,4.10
2022-08-21T17:18:13.692Z,5.32
2022-08-21T17:20:52.313Z,2.80
2022-08-21T17:23:49.319Z,4.28
2022-08-21T17:26:35.829Z,3.63
2022-08-21T17:29:17.043Z,2.30
2022-08-21T17:31:49.545Z,2.17
2022-08-21T17:34:19.207Z,2.58
2022-08-21T17:36:56.288Z,2.40
2022-08-21T17:39:31.333Z,4.18
2022-08-21T17:42:13.938Z,4.20
2022-08-21T17:44:56.093Z,5.55
2022-08-21T17:47:28.834Z,4.43
2022-08-21T17:50:08.662Z,3.63
2022-08-21T17:52:44.819Z,2.65
2022-08-21T17:55:31.486Z,4.32
2022-08-21T17:58:04.336Z,4.15
2022-08-21T18:00:42.607Z,2.80
2022-08-21T18:03:24.532Z,3.92
2022-08-21T18:06:00.214Z,4.93
2022-08-21T18:08:42.593Z,2.35
2022-08-21T18:11:23.651Z,2.72
2022-08-21T18:14:06.782Z,1.92
2022-08-21T18:16:48.670Z,3.67
2022-08-21T18:19:23.494Z,2.40
2022-08-21T18:22:04.289Z,4.20
2022-08-21T18:24:51.796Z,3.22
2022-08-21T18:27:37.297Z,3.80
2022-08-21T18:30:13.180Z,3.30
2022-08-21T18:32:48.445Z,2.70
2022-08-21T18:35:25.186Z,2.67
2022-08-21T18:37:59.270Z,4.00
2022-08-21T18:40:36.696Z,3.25
2022-08-21T18:43:21.340Z,1.92
2022-08-21T18:46:01.369Z,6.28
2022-08-21T18:48:38.125Z,2.88
2022-08-21T18:51:16.951Z,2.28
2022-08-21T18:56:58.613Z,3.47
2022-08-21T18:59:30.232Z,4.28
2022-08-21T19:02:09.580Z,2.63
2022-08-21T19:04:45.103Z,3.80
2022-08-21T19:07:16.550Z,3.55
2022-08-21T19:10:14.142Z,4.05
2022-08-21T19:12:50.639Z,3.25
2022-08-21T19:15:26.523Z,2.35
2022-08-21T19:18:11.768Z,4.10
2022-08-21T19:20:47.312Z,6.95
2022-08-21T19:23:35.559Z,3.05
2022-08-21T19:26:09.754Z,3.67
2022-08-21T19:28:54.327Z,2.83
2022-08-21T19:31:32.771Z,2.97
2022-08-21T19:34:19.348Z,4.88
2022-08-21T19:36:52.468Z,3.35
2022-08-21T19:39:40.397Z,3.67
2022-08-21T19:42:17.372Z,3.13
2022-08-21T19:47:56.442Z,3.20
2022-08-21T19:50:34.108Z,5.05
2022-08-21T19:53:11.943Z,3.63
2022-08-21T19:55:48.325Z,3.60
2022-08-21T19:58:44.726Z,2.78
2022-08-21T20:01:18.647Z,3.30
2022-08-21T20:06:45.903Z,3.70
2022-08-21T20:09:22.067Z,6.53
2022-08-21T20:12:14.697Z,4.47
2022-08-21T20:15:00.785Z,2.75
2022-08-21T20:17:39.313Z,3.85
2022-08-21T20:20:22.813Z,4.23
2022-08-21T20:23:10.635Z,4.37
2022-08-21T20:25:56.135Z,3.40
2022-08-21T20:28:28.524Z,4.13
2022-08-21T20:34:17.484Z,4.57
2022-08-21T20:36:58.406Z,3.10
2022-08-21T20:39:35.511Z,3.57
2022-08-21T20:42:12.470Z,4.63
2022-08-21T20:44:51.508Z,5.83
2022-08-21T20:47:34.061Z,5.77
2022-08-21T20:50:15.673Z,6.50
2022-08-21T20:52:47.260Z,5.73
2022-08-21T20:55:29.415Z,4.63
2022-08-21T20:58:12.651Z,4.93
2022-08-21T21:00:45.228Z,6.33
2022-08-21T21:03:37.487Z,5.73
2022-08-21T21:06:25.233Z,5.47
2022-08-21T21:09:02.407Z,4.93
2022-08-21T21:11:41.782Z,5.60
2022-08-21T21:14:27.007Z,4.40
2022-08-21T21:17:02.401Z,4.40
2022-08-21T21:19:40.695Z,4.33
2022-08-21T21:22:22.783Z,5.03
2022-08-21T21:25:11.103Z,5.00
2022-08-21T21:27:51.620Z,4.70
2022-08-21T21:30:37.459Z,3.63
2022-08-21T21:33:19.714Z,3.53
2022-08-21T21:36:06.728Z,6.60
2022-08-21T21:39:02.610Z,3.77
2022-08-21T21:41:50.490Z,3.77
2022-08-21T21:45:01.611Z,6.93
2022-08-21T21:47:45.998Z,5.90
2022-08-21T21:50:42.862Z,5.37
2022-08-21T21:53:38.738Z,5.07
2022-08-21T21:56:27.514Z,6.23
2022-08-21T21:59:25.046Z,5.10
2022-08-21T22:02:08.336Z,6.37
2022-08-21T22:04:51.074Z,4.67
2022-08-21T22:07:35.638Z,5.87
2022-08-21T22:10:30.727Z,4.20
2022-08-21T22:13:26.222Z,9.03
2022-08-21T22:15:58.863Z,5.70
2022-08-21T22:18:35.372Z,5.80
2022-08-21T22:21:24.170Z,4.63
2022-08-21T22:24:04.634Z,5.33
2022-08-21T22:26:48.615Z,6.33
2022-08-21T22:29:37.895Z,5.73
2022-08-21T22:32:10.767Z,6.30
2022-08-21T22:34:45.159Z,5.63
2022-08-21T22:37:40.408Z,4.67
2022-08-21T22:40:15.859Z,3.67
2022-08-21T22:42:58.400Z,4.40
2022-08-21T22:45:43.589Z,4.67
2022-08-21T22:48:28.230Z,5.73
2022-08-21T22:51:07.187Z,6.83
2022-08-21T22:53:39.112Z,6.93
2022-08-21T22:56:12.794Z,5.07
2022-08-21T22:59:02.995Z,5.17
2022-08-21T23:01:46.659Z,7.40
2022-08-21T23:04:22.095Z,6.60
2022-08-21T23:06:56.771Z,5.63
2022-08-21T23:09:38.095Z,6.73
2022-08-21T23:12:33.127Z,5.77
2022-08-21T23:15:08.774Z,4.83
2022-08-21T23:17:49.990Z,4.83
2022-08-21T23:20:24.741Z,6.03
2022-08-21T23:23:04.921Z,5.50
2022-08-21T23:26:04.847Z,5.63
2022-08-21T23:28:46.947Z,7.40
2022-08-21T23:31:26.664Z,5.90
2022-08-21T23:34:25.572Z,4.60
2022-08-21T23:37:48.450Z,6.83
2022-08-21T23:40:50.555Z,8.90
2022-08-21T23:43:50.945Z,4.97
2022-08-21T23:46:38.329Z,6.27
2022-08-21T23:49:21.768Z,7.63
2022-08-21T23:52:04.862Z,4.87
2022-08-21T23:54:48.917Z,5.37
2022-08-21T23:57:36.176Z,3.73
